Tiempo atmosférico en la estación meteorológica de San Bartolome Tirajana, El Matorral, Las Palmas (41 m.)



Fecha
DESCASC
Temp. máxima en grados centígrados (hora)
DESCASC
Temp. mínima en grados centígrados (hora)
DESCASC
Temp. media en grados centígrados
DESCASC
Racha de viento máxima en m/sg (hora)
DESCASC
Velocidad máxima media en intervalos de 10 minutos(hora)
DESCASC
Precipitaciones diarias en mm
DESCASC
Precipitaciones de 00:00 a 06:00 en mm
DESCASC
Precipitaciones de 06:00 a 12:00 en mm
DESCASC
Precipitaciones de 12:00 a 18:00 en mm
DESCASC
Precipitaciones de 18:00 a 24:00 en mm
DESCASC
13-01-2021 20 (13:20) 14.1 (04:50) 17.1 11.94 (15:10) 7.5 (13:00) 0.6 0.6 0 0 0
12-01-2021 19 (12:20) 13.1 (08:00) 16.1 13.61 (12:50) 8.33 (13:00) 1.2 0 0.6 0.4 0.2
11-01-2021 19.6 (12:50) 13.2 (06:50) 16.4 11.67 (14:00) 7.22 (14:10) 0.8 0 0 0 0.8
10-01-2021 20.9 (16:00) 11.6 (04:10) 16.3 12.78 (23:50) 7.78 (23:40) 0 0 0 0 0
09-01-2021 20.1 (11:30) 11.9 (00:00) 16 16.11 (15:30) 9.44 (15:30) 0 0 0 0 0
08-01-2021 22.8 (12:50) 14.7 (00:00) 18.7 16.11 (01:30) 11.39 (00:20) 2.6 1.8 0 0.8 0
07-01-2021 22.6 (13:50) 18.5 (00:00) 20.6 20.83 (14:10) 12.78 (14:10) 6 1 0.4 0 4.6
06-01-2021 22.6 (11:40) 18.8 (00:00) 20.7 18.61 (11:30) 12.78 (15:30) 1.8 0.2 0.2 1.4 0
05-01-2021 23.8 (12:50) 17.6 (00:00) 20.7 13.61 (13:00) 9.17 (13:50) 1.6 0 0 0 1.6
04-01-2021 18.8 (13:30) 15.3 (00:00) 17 11.67 (18:10) 7.22 (18:10) 0 0 0 0 0
03-01-2021 19.3 (12:20) 14.6 (00:00) 16.9 5.83 (04:00) 3.61 (15:40) 0 0 0 0 0
02-01-2021 20.9 (13:00) 14.8 (00:00) 17.8 9.72 (13:10) 5.83 (15:30) 0 0 0 0 0
01-01-2021 20.8 (14:10) 15.8 (00:00) 18.3 11.94 (14:10) 7.5 (12:20) 0 0 0 0 0
31-12-2020 20.5 (13:00) 13.3 (00:00) 16.9 11.39 (12:20) 6.94 (11:50) 0 0 0 0 0
30-12-2020 21 (10:50) 13.6 (00:00) 17.3 8.61 (14:00) 5.56 (14:00) 2.4 0 0 2.4 0
29-12-2020 21.2 (12:50) 14.4 (00:00) 17.8 10.28 (13:50) 5.83 (15:30) 0 0 0 0 0
28-12-2020 24.9 (13:10) 12.8 (00:00) 18.8 7.78 (17:10) 4.44 (16:30) 0 0 0 0 0
27-12-2020 24.2 (13:00) 14.7 (00:00) 19.5 4.72 (10:00) 3.06 (06:30) 0 0 0 0 0
26-12-2020 22.9 (13:20) 15 (00:00) 18.9 6.39 (15:20) 4.72 (16:20) 0 0 0 0 0
25-12-2020 23.5 (12:10) 16 (00:00) 19.8 5.83 (14:20) 3.89 (04:40) 0 0 0 0 0
24-12-2020 21.5 (11:50) 16.5 (00:00) 19 9.17 (09:20) 6.11 (11:10) 0 0 0 0 0
23-12-2020 23.5 (13:20) 15.9 (00:00) 19.7 7.5 (11:20) 4.72 (11:20) 0 0 0 0 0
22-12-2020 22.3 (13:00) 14.6 (00:00) 18.4 6.67 (12:50) 3.89 (10:30) 0 0 0 0 0
21-12-2020 22.7 (13:40) 16.4 (00:00) 19.6 9.44 (09:50) 6.11 (10:10) 0 0 0 0 0
20-12-2020 22.4 (14:20) 16.7 (00:00) 19.6 8.89 (10:50) 5.56 (15:00) 0 0 0 0 0
19-12-2020 22.2 (13:00) 16.8 (00:00) 19.5 10.83 (13:20) 6.67 (13:20) 0 0 0 0 0
18-12-2020 21.5 (12:30) 15.7 (00:00) 18.6 12.22 (12:50) 7.22 (13:20) 0 0 0 0 0

Gráficas

Temp. máximas Temp. mínimas Temp. medias Precipitaciones Rachas de viento máximas Velocidades máximas media en intervalos de 10 minutos

Datos horarios

Fecha y hora oficial Temperatura (ºC) Velocidad del viento (km/h) Dirección del viento Racha (km/h) Dirección de racha Precipitación (mm) Presión (hPa) Tendencia (hPa) Humedad (%)
2021-01-16 23:00:00 16.7 14 Nordeste 26 Norte 0 -- -- 63
2021-01-16 22:00:00 17.1 14 Nordeste 30 Norte 0 -- -- 63
2021-01-16 21:00:00 16.9 17 Nordeste 33 Norte 0 -- -- 61
2021-01-16 20:00:00 17.1 18 Nordeste 41 Nordeste 0 -- -- 67
2021-01-16 19:00:00 17.4 16 Nordeste 34 Nordeste 0 -- -- 71
2021-01-16 18:00:00 18.8 18 Nordeste 35 Nordeste 0 -- -- 67
2021-01-16 17:00:00 19.6 23 Norte 40 Nordeste 0 -- -- 59
2021-01-16 16:00:00 19.7 23 Nordeste 49 Nordeste 0 -- -- 62
2021-01-16 15:00:00 20.2 24 Nordeste 43 Nordeste 0 -- -- 58
2021-01-16 14:00:00 20.7 21 Nordeste 46 Nordeste 0 -- -- 55
2021-01-16 13:00:00 20.2 27 Nordeste 46 Nordeste 0 -- -- 53
2021-01-16 12:00:00 20.1 24 Nordeste 48 Nordeste 0 -- -- 57
2021-01-16 11:00:00 18.7 22 Nordeste 48 Nordeste 0 -- -- 53
2021-01-16 10:00:00 18.4 23 Norte 45 Norte 0 -- -- 57
2021-01-16 09:00:00 16.5 21 Norte 41 Norte 0 -- -- 59
2021-01-16 08:00:00 16.1 17 Nordeste 35 Norte 0 -- -- 62
2021-01-16 07:00:00 16.4 19 Nordeste 33 Norte 0 -- -- 63
2021-01-16 06:00:00 15.9 22 Norte 37 Norte 0 -- -- 62
2021-01-16 05:00:00 15.6 20 Nordeste 35 Norte 0 -- -- 63
2021-01-16 04:00:00 15.8 21 Nordeste 37 Nordeste 0 -- -- 58
2021-01-16 03:00:00 16 19 Nordeste 36 Norte 0 -- -- 61
2021-01-16 02:00:00 16.3 15 Norte 33 Norte 0 -- -- 58
2021-01-16 01:00:00 16.3 28 Norte 44 Norte 0 -- -- 60
2021-01-16 00:00:00 16.4 22 Norte 36 Norte 0 -- -- 59
2021-01-15 23:00:00 16.3 20 Nordeste 45 Norte 0 -- -- 60
2021-01-15 22:00:00 16.9 26 Norte 40 Norte 0 -- -- 60
2021-01-15 21:00:00 16.5 20 Norte 39 Nordeste 0 -- -- 57
2021-01-15 20:00:00 16.8 26 Norte 46 Nordeste 0 -- -- 55
2021-01-15 19:00:00 16.9 25 Nordeste 43 Nordeste 0 -- -- 57
2021-01-15 18:00:00 17.8 24 Nordeste 49 Norte 0 -- -- 66
2021-01-15 17:00:00 19.3 21 Norte 40 Norte 0 -- -- 49
2021-01-15 16:00:00 18.5 26 Norte 42 Nordeste 0 -- -- 56
2021-01-15 15:00:00 19.1 23 Nordeste 41 Nordeste 0 -- -- 58
2021-01-15 14:00:00 19.5 24 Nordeste 41 Nordeste 0 -- -- 53
2021-01-15 13:00:00 18.2 23 Norte 40 Norte 0 -- -- 58
2021-01-15 12:00:00 18.2 19 Nordeste 38 Nordeste 0 -- -- 58
2021-01-15 11:00:00 17.4 17 Norte 32 Norte 0 -- -- 59
2021-01-15 10:00:00 17.2 19 Norte 33 Norte 0 -- -- 56
2021-01-15 09:00:00 16.7 19 Norte 35 Norte 0 -- -- 58
2021-01-15 08:00:00 16 18 Nordeste 31 Norte 0 -- -- 57
2021-01-15 07:00:00 16.4 17 Nordeste 34 Norte 0 -- -- 61
2021-01-15 06:00:00 16.2 17 Norte 31 Nordeste 0 -- -- 58
2021-01-15 05:00:00 16 19 Norte 39 Norte 0 -- -- 55
2021-01-15 04:00:00 16.4 17 Norte 33 Norte 0 -- -- 59
2021-01-15 03:00:00 16.2 17 Norte 33 Nordeste 0 -- -- 57
2021-01-15 02:00:00 16.2 18 Norte 34 Nordeste 0 -- -- 64
2021-01-15 01:00:00 16.9 20 Nordeste 39 Norte 0 -- -- 60
2021-01-15 00:00:00 16.3 19 Norte 33 Norte 0 -- -- 69
2021-01-14 23:00:00 15.8 15 Norte 29 Nordeste 0 -- -- 63
2021-01-14 22:00:00 16.4 17 Nordeste 33 Nordeste 0 -- -- 61
2021-01-14 21:00:00 16.8 16 Nordeste 33 Nordeste 0 -- -- 57
2021-01-14 20:00:00 16.9 18 Nordeste 33 Nordeste 0 -- -- 63
2021-01-14 19:00:00 17 17 Nordeste 31 Nordeste 0 -- -- 62
2021-01-14 18:00:00 17.3 14 Nordeste 30 Nordeste 0 -- -- 61
2021-01-14 17:00:00 17.8 15 Nordeste 31 Nordeste 0 -- -- 59
2021-01-14 16:00:00 17.8 16 Nordeste 31 Nordeste 0 -- -- 57
2021-01-14 15:00:00 18 16 Nordeste 30 Nordeste 0 -- -- 62
2021-01-14 14:00:00 18.3 17 Nordeste 28 Nordeste 0 -- -- 58
2021-01-14 13:00:00 18.3 18 Este 35 Este 0 -- -- 63
2021-01-14 12:00:00 19 18 Este 30 Nordeste 0 -- -- 60
2021-01-14 11:00:00 19.1 17 Nordeste 32 Nordeste 0 -- -- 57
2021-01-14 10:00:00 19.2 17 Este 31 Este 0 -- -- 62
2021-01-14 09:00:00 16 8 Norte 13 Norte 0 -- -- 71
2021-01-14 08:00:00 13.3 10 Norte 14 Norte 0 -- -- 79
2021-01-14 07:00:00 13.5 10 Norte 14 Norte 0 -- -- 77
2021-01-14 06:00:00 13.6 12 Norte 15 Norte 0 -- -- 79
2021-01-14 05:00:00 13.8 12 Norte 17 Norte 0 -- -- 80
2021-01-14 04:00:00 13.9 11 Norte 16 Norte 0 -- -- 79
2021-01-14 03:00:00 13.8 10 Norte 15 Norte 0 -- -- 80
2021-01-14 02:00:00 14.7 11 Norte 18 Norte 0 -- -- 80
2021-01-14 01:00:00 15.1 12 Norte 22 Norte 0 -- -- 76
2021-01-14 00:00:00 15.3 14 Norte 22 Norte 0 -- -- 75
2021-01-13 23:00:00 15.4 13 Norte 22 Norte 0 -- -- 74
2021-01-13 22:00:00 16.2 14 Norte 21 Norte 0 -- -- 71
2021-01-13 21:00:00 16 12 Norte 23 Norte 0 -- -- 68
2021-01-13 20:00:00 16.3 14 Norte 30 Norte 0 -- -- 65
2021-01-13 19:00:00 16.8 14 Norte 33 Norte 0 -- -- 64
2021-01-13 18:00:00 17.6 24 Norte 36 Norte 0 -- -- 60
2021-01-13 17:00:00 19.1 21 Norte 38 Norte 0 -- -- 54
2021-01-13 16:00:00 19.5 19 Nordeste 43 Nordeste 0 -- -- 54
2021-01-13 15:00:00 19.5 26 Nordeste 38 Nordeste 0 -- -- 53
2021-01-13 14:00:00 19.7 22 Nordeste 42 Nordeste 0 -- -- 57
2021-01-13 13:00:00 19.1 27 Nordeste 43 Nordeste 0 -- -- 59
2021-01-13 12:00:00 19.3 23 Nordeste 40 Nordeste 0 -- -- 61
2021-01-13 11:00:00 18.8 24 Nordeste 38 Nordeste 0 -- -- 62
2021-01-13 10:00:00 18.2 24 Nordeste 37 Nordeste 0 -- -- 66
2021-01-13 09:00:00 16.6 21 Nordeste 36 Nordeste 0 -- -- 73
2021-01-13 08:00:00 16.2 18 Nordeste 31 Nordeste 0 -- -- 76
2021-01-13 07:00:00 16.1 14 Nordeste 24 Norte 0 -- -- 75
2021-01-13 06:00:00 14.9 13 Norte 24 Norte 0.6 -- -- 84
2021-01-13 05:00:00 14.3 8 Norte 16 Norte 0 -- -- 83
2021-01-13 04:00:00 14.9 9 Norte 15 Norte 0 -- -- 81
2021-01-13 03:00:00 15.5 11 Norte 24 Norte 0 -- -- 79
2021-01-13 02:00:00 15.4 10 Norte 18 Norte 0 -- -- 80
2021-01-13 01:00:00 15.5 13 Norte 23 Norte 0 -- -- 76
2021-01-13 00:00:00 15.1 10 Norte 18 Norte 0 -- -- 75
2021-01-12 23:00:00 15.5 10 Norte 19 Norte 0 -- -- 76
2021-01-12 22:00:00 14.7 8 Norte 15 Norte 0.2 -- -- 82
2021-01-12 21:00:00 15.4 10 Nordeste 21 Norte 0 -- -- 75
2021-01-12 20:00:00 15.3 13 Norte 24 Norte 0 -- -- 72
2021-01-12 19:00:00 15.8 15 Norte 36 Norte 0 -- -- 74
2021-01-12 18:00:00 17.3 17 Nordeste 31 Norte 0 -- -- 66
2021-01-12 17:00:00 18.6 21 Norte 32 Norte 0 -- -- 53
2021-01-12 16:00:00 18.3 17 Norte 30 Nordeste 0 -- -- 53
2021-01-12 15:00:00 17.8 13 Nordeste 21 Nordeste 0 -- -- 67
2021-01-12 14:00:00 15.2 12 Nordeste 35 Norte 0.2 -- -- 84
2021-01-12 13:00:00 15.1 30 Norte 49 Nordeste 0.2 -- -- 83
2021-01-12 12:00:00 17.9 13 Nordeste 26 Nordeste 0 -- -- 64
2021-01-12 11:00:00 18.7 13 Nordeste 25 Nordeste 0 -- -- 61
2021-01-12 10:00:00 16.5 17 Norte 27 Noroeste 0 -- -- 66
2021-01-12 09:00:00 13.4 16 Norte 29 Norte 0 -- -- 86
2021-01-12 08:00:00 13.1 16 Nordeste 31 Norte 0.6 -- -- 88
2021-01-12 07:00:00 13.9 10 Norte 20 Norte 0 -- -- 83
2021-01-12 06:00:00 14.4 9 Nordeste 23 Norte 0 -- -- 74
2021-01-12 05:00:00 14.4 14 Norte 32 Norte 0 -- -- 78
2021-01-12 04:00:00 13.8 10 Norte 24 Norte 0 -- -- 75
2021-01-12 03:00:00 14.5 13 Norte 22 Norte 0 -- -- 73
2021-01-12 02:00:00 14.8 15 Norte 24 Norte 0 -- -- 70
2021-01-12 01:00:00 14.7 15 Norte 22 Norte 0 -- -- 71
2021-01-12 00:00:00 15.2 14 Norte 24 Norte 0 -- -- 72
2021-01-11 23:00:00 14.4 11 Norte 24 Norte 0.4 -- -- 83
2021-01-11 22:00:00 14.2 12 Norte 24 Nordeste 0.2 -- -- 83
2021-01-11 21:00:00 15.7 10 Norte 27 Norte 0 -- -- 68
2021-01-11 20:00:00 14.6 11 Norte 22 Nordeste 0 -- -- 79
2021-01-11 19:00:00 14.4 13 Norte 39 Norte 0.2 -- -- 84
2021-01-11 18:00:00 16.5 19 Norte 35 Norte 0 -- -- 65
2021-01-11 17:00:00 18 19 Norte 35 Norte 0 -- -- 55
2021-01-11 16:00:00 17.7 21 Norte 41 Nordeste 0 -- -- 58
2021-01-11 15:00:00 18.9 22 Nordeste 40 Norte 0 -- -- 55
2021-01-11 14:00:00 19.2 25 Norte 42 Norte 0 -- -- 52
2021-01-11 13:00:00 18.5 21 Norte 37 Nordeste 0 -- -- 54
2021-01-11 12:00:00 19 23 Norte 39 Norte 0 -- -- 48
2021-01-11 11:00:00 18.3 20 Norte 32 Norte 0 -- -- 53
2021-01-11 10:00:00 17.8 13 Nordeste 22 Norte 0 -- -- 49
2021-01-11 09:00:00 15.4 9 Nordeste 18 Norte 0 -- -- 59
2021-01-11 08:00:00 13.6 11 Norte 26 Noroeste 0 -- -- 67
2021-01-11 07:00:00 13.3 9 Norte 28 Norte 0 -- -- 70
2021-01-11 06:00:00 14.7 11 Norte 26 Nordeste 0 -- -- 63
2021-01-11 05:00:00 14.7 15 Norte 22 Norte 0 -- -- 66
2021-01-11 04:00:00 14.7 13 Norte 26 Norte 0 -- -- 70
2021-01-11 03:00:00 14.5 20 Norte 32 Norte 0 -- -- 75
2021-01-11 02:00:00 14.2 14 Norte 42 Norte 0 -- -- 76
2021-01-11 01:00:00 14.1 13 Nordeste 39 Nordeste 0 -- -- 79
2021-01-11 00:00:00 15 21 Norte 46 Norte 0 -- -- 68
2021-01-10 23:00:00 15.5 21 Norte 40 Norte 0 -- -- 70
2021-01-10 22:00:00 16 10 Nordeste 19 Norte 0 -- -- 59
2021-01-10 21:00:00 15.4 5 Norte 18 Norte 0 -- -- 56
2021-01-10 20:00:00 16.5 10 Norte 29 Norte 0 -- -- 53
2021-01-10 19:00:00 17.1 11 Norte 23 Norte 0 -- -- 56
2021-01-10 18:00:00 18.4 13 Norte 30 Norte 0 -- -- 54
2021-01-10 17:00:00 20.3 10 Sur 17 Sur 0 -- -- 52
2021-01-10 16:00:00 20.9 9 Sur 21 Sur 0 -- -- 53
2021-01-10 15:00:00 20.6 11 Sur 25 Sur 0 -- -- 55
2021-01-10 14:00:00 20.3 13 Sur 23 Sur 0 -- -- 56
2021-01-10 13:00:00 20.3 13 Sudeste 23 Sudeste 0 -- -- 56
2021-01-10 12:00:00 19 7 Sur 13 Sudoeste 0 -- -- 59
2021-01-10 11:00:00 17.6 5 Sudoeste 11 Sudeste 0 -- -- 64
2021-01-10 10:00:00 17.8 3 Sudoeste 15 Oeste 0 -- -- 58
2021-01-10 09:00:00 14.8 8 Noroeste 14 Noroeste 0 -- -- 68
2021-01-10 08:00:00 14 11 Noroeste 15 Noroeste 0 -- -- 69
2021-01-10 07:00:00 12.8 6 Noroeste 13 Norte 0 -- -- 74
2021-01-10 06:00:00 13.3 6 Noroeste 17 Noroeste 0 -- -- 69
2021-01-10 05:00:00 12.7 7 Noroeste 9 Noroeste 0 -- -- 71
2021-01-10 04:00:00 11.8 8 Norte 12 Noroeste 0 -- -- 75
2021-01-10 03:00:00 12.7 8 Noroeste 21 Norte 0 -- -- 71
2021-01-10 02:00:00 13.5 6 Norte 21 Norte 0 -- -- 69
2021-01-10 01:00:00 13.8 9 Norte 27 Noroeste 0 -- -- 72
2021-01-10 00:00:00 13.9 9 Norte 23 Norte 0 -- -- 71
2021-01-09 23:00:00 14.5 9 Norte 20 Norte 0 -- -- 61
2021-01-09 22:00:00 14.4 8 Norte 26 Norte 0 -- -- 64
2021-01-09 21:00:00 14.6 19 Norte 35 Norte 0 -- -- 66
2021-01-09 20:00:00 14.9 18 Norte 35 Norte 0 -- -- 60
2021-01-09 19:00:00 15.3 19 Nordeste 43 Norte 0 -- -- 60
2021-01-09 18:00:00 16.3 17 Nordeste 47 Norte 0 -- -- 61
2021-01-09 17:00:00 17.1 26 Norte 43 Norte 0 -- -- 58
2021-01-09 16:00:00 17.1 25 Norte 58 Norte 0 -- -- 59
2021-01-09 15:00:00 17.8 26 Norte 45 Nordeste 0 -- -- 53
2021-01-09 14:00:00 18 27 Norte 44 Norte 0 -- -- 49
2021-01-09 13:00:00 19 28 Norte 44 Norte 0 -- -- 46
2021-01-09 12:00:00 18.4 21 Norte 36 Norte 0 -- -- 56
2021-01-09 11:00:00 18.6 13 Nordeste 21 Nordeste 0 -- -- 53
2021-01-09 10:00:00 17.4 9 Norte 20 Norte 0 -- -- 56
2021-01-09 09:00:00 14.7 4 Norte 18 Noroeste 0 -- -- 71
2021-01-09 08:00:00 12 9 Noroeste 16 Norte 0 -- -- 80
2021-01-09 07:00:00 12.4 7 Norte 13 Norte 0 -- -- 77
2021-01-09 06:00:00 13 9 Noroeste 15 Noroeste 0 -- -- 77
2021-01-09 05:00:00 12.7 9 Norte 21 Norte 0 -- -- 80
2021-01-09 04:00:00 13.6 13 Norte 22 Norte 0 -- -- 73
2021-01-09 03:00:00 13.2 5 Nordeste 18 Norte 0 -- -- 72
2021-01-09 02:00:00 12.6 3 Norte 12 Norte 0 -- -- 83
2021-01-09 01:00:00 13.9 6 Noroeste 22 Nordeste 0 -- -- 76
2021-01-09 00:00:00 15.4 12 Norte 24 Norte 0 -- -- 66
2021-01-08 23:00:00 15.5 6 Norte 23 Nordeste 0 -- -- 70
2021-01-08 22:00:00 15.3 8 Norte 26 Norte 0 -- -- 71
2021-01-08 21:00:00 16.1 12 Norte 31 Nordeste 0 -- -- 65
2021-01-08 20:00:00 16.4 9 Nordeste 19 Nordeste 0 -- -- 65
2021-01-08 19:00:00 16.5 3 Noroeste 20 Nordeste 0 -- -- 72
2021-01-08 18:00:00 16.8 13 Nordeste 27 Nordeste 0 -- -- 71
2021-01-08 17:00:00 18.3 11 Nordeste 23 Nordeste 0 -- -- 72
2021-01-08 16:00:00 16.6 13 Nordeste 26 Nordeste 0.8 -- -- 84
2021-01-08 15:00:00 18.3 20 Nordeste 36 Nordeste 0 -- -- 75
2021-01-08 14:00:00 19.8 22 Este 34 Este 0 -- -- 68
2021-01-08 13:00:00 22.4 11 Sudeste 21 Sudeste 0 -- -- 60
2021-01-08 12:00:00 21.8 12 Este 21 Este 0 -- -- 63
2021-01-08 11:00:00 21.3 7 Este 22 Este 0 -- -- 63
2021-01-08 10:00:00 21.2 2 Este 18 Sudoeste 0 -- -- 67
2021-01-08 09:00:00 18.2 8 Sur 11 Sur 0 -- -- 75
2021-01-08 08:00:00 16.2 4 Noroeste 9 Noroeste 0 -- -- 80
2021-01-08 07:00:00 17.5 5 Oeste 36 Oeste 0 -- -- 79
2021-01-08 06:00:00 18.2 24 Sudoeste 52 Sudoeste 0 -- -- 77
2021-01-08 05:00:00 18.3 28 Sudoeste 49 Sudoeste 0 -- -- 84
2021-01-08 04:00:00 18.4 32 Sudoeste 48 Sudoeste 0 -- -- 84
2021-01-08 03:00:00 18.5 33 Sudoeste 51 Sudoeste 1.4 -- -- 89
2021-01-08 02:00:00 18.9 36 Sudoeste 58 Sudoeste 0 -- -- 87
2021-01-08 01:00:00 18.9 35 Sudoeste 57 Sudoeste 0.4 -- -- 89
2021-01-08 00:00:00 19.3 38 Sudoeste 56 Sudoeste 0 -- -- 93
2021-01-07 23:00:00 19.3 36 Sudoeste 54 Sudoeste 2.8 -- -- 98
2021-01-07 22:00:00 18.5 44 Sudoeste 60 Sudoeste 1.6 -- -- 96
2021-01-07 21:00:00 19.7 29 Sudoeste 48 Sudoeste 0.2 -- -- 94
2021-01-07 20:00:00 20.4 32 Sudoeste 59 Sudoeste 0 -- -- 88
2021-01-07 19:00:00 20.3 32 Sudoeste 59 Sudoeste 0 -- -- 91
2021-01-07 18:00:00 20.6 36 Sudoeste 61 Sudoeste 0 -- -- 88
2021-01-07 17:00:00 20.9 39 Sudoeste 64 Sudoeste 0 -- -- 86
2021-01-07 16:00:00 21.1 37 Sudoeste 67 Sudoeste 0 -- -- 87
2021-01-07 15:00:00 21.8 39 Sudoeste 75 Sudoeste 0 -- -- 81
2021-01-07 14:00:00 22 45 Sudoeste 67 Sudoeste 0 -- -- 77
2021-01-07 13:00:00 20.7 44 Sudoeste 64 Sudoeste 0 -- -- 91
2021-01-07 12:00:00 21.5 40 Sudoeste 59 Sur 0 -- -- 88
2021-01-07 11:00:00 21.3 35 Sudoeste 53 Sudoeste 0.2 -- -- 88
2021-01-07 10:00:00 20.3 37 Sudoeste 55 Sudoeste 0 -- -- 92
2021-01-07 09:00:00 20 35 Sudoeste 58 Sudoeste 0 -- -- 93
2021-01-07 08:00:00 19.1 42 Sudoeste 60 Sudoeste 0.2 -- -- 95
2021-01-07 07:00:00 19.3 37 Sudoeste 53 Sudoeste 0 -- -- 94
2021-01-07 06:00:00 19.3 33 Sudoeste 51 Sudoeste 0 -- -- 95
2021-01-07 05:00:00 19.4 33 Sudoeste 48 Sudoeste 0.2 -- -- 96
2021-01-07 04:00:00 19.4 32 Sudoeste 45 Sudoeste 0 -- -- 94
2021-01-07 03:00:00 19.2 29 Sudoeste 49 Sudoeste 0.4 -- -- 94
2021-01-07 02:00:00 19.6 28 Sudoeste 51 Sudoeste 0 -- -- 95
2021-01-07 01:00:00 19.7 30 Sudoeste 46 Sudoeste 0.4 -- -- 95
2021-01-07 00:00:00 19.7 28 Sudoeste 41 Sudoeste 0 -- -- 92
2021-01-06 23:00:00 19.6 23 Sudoeste 34 Sudoeste 0 -- -- 91
2021-01-06 22:00:00 19.6 22 Sudoeste 33 Sudoeste 0 -- -- 88
2021-01-06 21:00:00 19.5 22 Sudoeste 39 Sudoeste 0 -- -- 88
2021-01-06 20:00:00 20.3 26 Sudoeste 45 Oeste 0 -- -- 80
2021-01-06 19:00:00 19.9 24 Sudoeste 52 Sudoeste 0 -- -- 89
2021-01-06 18:00:00 20.4 30 Sudoeste 58 Oeste 0 -- -- 85
2021-01-06 17:00:00 20.3 36 Sudoeste 60 Oeste 0.2 -- -- 88
2021-01-06 16:00:00 20.7 41 Sudoeste 66 Sudoeste 1 -- -- 91
2021-01-06 15:00:00 20.3 37 Sudoeste 61 Sudoeste 0.2 -- -- 94
2021-01-06 14:00:00 21 34 Sudoeste 57 Sudoeste 0 -- -- 90
2021-01-06 13:00:00 21.5 31 Sudoeste 56 Sudoeste 0 -- -- 88
2021-01-06 12:00:00 22 37 Sudoeste 67 Sudoeste 0 -- -- 85
2021-01-06 11:00:00 21.4 36 Sudoeste 59 Sudoeste 0 -- -- 90
2021-01-06 10:00:00 20.9 38 Sudoeste 60 Sudoeste 0 -- -- 93
2021-01-06 09:00:00 19.8 35 Sudoeste 54 Sudoeste 0.2 -- -- 95
2021-01-06 08:00:00 19.5 32 Sudoeste 49 Sudoeste 0 -- -- 96
2021-01-06 07:00:00 19.5 31 Sudoeste 45 Sudoeste 0 -- -- 95
2021-01-06 06:00:00 19.3 30 Sudoeste 43 Sudoeste 0.2 -- -- 95
2021-01-06 05:00:00 19.3 28 Sudoeste 42 Sudoeste 0 -- -- 94
2021-01-06 04:00:00 19 26 Sudoeste 40 Sudoeste 0 -- -- 94
2021-01-06 03:00:00 18.9 26 Sudoeste 35 Sudoeste 0 -- -- 95
2021-01-06 02:00:00 19.1 18 Sudoeste 31 Sudoeste 0 -- -- 94
2021-01-06 01:00:00 18.9 22 Sudoeste 32 Sudoeste 0 -- -- 94
2021-01-06 00:00:00 19 19 Sudoeste 32 Sudoeste 0.2 -- -- 94
2021-01-05 23:00:00 19.1 21 Sudoeste 31 Sudoeste 0 -- -- 95
2021-01-05 22:00:00 19.1 17 Sudoeste 32 Sudoeste 0 -- -- 93
2021-01-05 21:00:00 19.2 21 Sudoeste 30 Sudoeste 1.4 -- -- 93
2021-01-05 20:00:00 19 16 Sudoeste 29 Sudoeste 0 -- -- 89
2021-01-05 19:00:00 19.9 18 Sudoeste 29 Sudoeste 0 -- -- 81
2021-01-05 18:00:00 21.2 17 Sudoeste 31 Sudoeste 0 -- -- 75
2021-01-05 17:00:00 21.6 19 Sudoeste 40 Sudoeste 0 -- -- 75
2021-01-05 16:00:00 22.4 27 Sudoeste 43 Sudoeste 0 -- -- 74
2021-01-05 15:00:00 23.4 29 Sudoeste 47 Sudoeste 0 -- -- 67
2021-01-05 14:00:00 23.2 31 Sudoeste 48 Sudoeste 0 -- -- 72
2021-01-05 13:00:00 23.5 30 Sudoeste 49 Oeste 0 -- -- 67
2021-01-05 12:00:00 23 24 Sudoeste 40 Sudoeste 0 -- -- 70
2021-01-05 11:00:00 22.7 25 Sudoeste 38 Sudoeste 0 -- -- 69
2021-01-05 10:00:00 22.1 13 Oeste 31 Sudoeste 0 -- -- 64
2021-01-05 09:00:00 19.6 16 Oeste 31 Oeste 0 -- -- 76
2021-01-05 08:00:00 17.9 17 Sudoeste 27 Sudoeste 0 -- -- 90
2021-01-05 07:00:00 18.2 22 Sudoeste 31 Sudoeste 0 -- -- 88
2021-01-05 06:00:00 18 19 Sudoeste 31 Sudoeste 0 -- -- 87
2021-01-05 05:00:00 18.1 22 Sudoeste 32 Sudoeste 0 -- -- 92
2021-01-05 04:00:00 18.1 22 Sudoeste 31 Sudoeste 0 -- -- 93
2021-01-05 03:00:00 17.8 13 Sudoeste 18 Sudoeste 0 -- -- 95
2021-01-05 02:00:00 18 8 Sudoeste 17 Sudoeste 0 -- -- 94
2021-01-05 01:00:00 17.8 9 Sudoeste 25 Sudoeste 0 -- -- 94
2021-01-05 00:00:00 17.8 15 Sudoeste 27 Sudoeste 0 -- -- 92
2021-01-04 23:00:00 17.8 16 Sudoeste 35 Sudoeste 0 -- -- 87
2021-01-04 22:00:00 18 21 Sudoeste 33 Sur 0 -- -- 86
2021-01-04 21:00:00 17.7 17 Sudoeste 36 Sudoeste 0 -- -- 85
2021-01-04 20:00:00 18.1 22 Sudoeste 36 Sur 0 -- -- 82
2021-01-04 19:00:00 18 20 Sudoeste 42 Sudoeste 0 -- -- 79
2021-01-04 18:00:00 18 22 Sudoeste 33 Sudoeste 0 -- -- 80
2021-01-04 17:00:00 18.1 20 Sudoeste 35 Sudoeste 0 -- -- 80
2021-01-04 16:00:00 18.1 21 Sudoeste 35 Sur 0 -- -- 79
2021-01-04 15:00:00 18.3 20 Sudoeste 32 Sudoeste 0 -- -- 76
2021-01-04 14:00:00 18.4 19 Sur 34 Sur 0 -- -- 75
2021-01-04 13:00:00 18.5 20 Sur 28 Sur 0 -- -- 75
2021-01-04 12:00:00 18.1 17 Sur 26 Sur 0 -- -- 75
2021-01-04 11:00:00 18 17 Sur 25 Sur 0 -- -- 75
2021-01-04 10:00:00 17.7 14 Sur 21 Sur 0 -- -- 77
2021-01-04 09:00:00 17.6 13 Sur 21 Sur 0 -- -- 77
2021-01-04 08:00:00 17.4 12 Sur 22 Sur 0 -- -- 77
2021-01-04 07:00:00 17.3 10 Sur 14 Sur 0 -- -- 74
2021-01-04 06:00:00 17 7 Sudoeste 13 Sudoeste 0 -- -- 75
2021-01-04 05:00:00 16.2 4 Oeste 9 Oeste 0 -- -- 77
2021-01-04 04:00:00 16.3 8 Noroeste 9 Oeste 0 -- -- 76
2021-01-04 03:00:00 15.9 6 Noroeste 10 Noroeste 0 -- -- 75
2021-01-04 02:00:00 15.9 5 Noroeste 10 Noroeste 0 -- -- 74
2021-01-04 01:00:00 15.9 7 Noroeste 12 Noroeste 0 -- -- 73
2021-01-04 00:00:00 15.4 6 Noroeste 9 Noroeste 0 -- -- 74
2021-01-03 23:00:00 15.1 6 Noroeste 9 Noroeste 0 -- -- 73
2021-01-03 22:00:00 15.4 6 Noroeste 8 Noroeste 0 -- -- 73
2021-01-03 21:00:00 16 6 Norte 6 Norte 0 -- -- 71
2021-01-03 20:00:00 17.4 3 Nordeste 9 Este 0 -- -- 65
2021-01-03 19:00:00 17.6 5 Este 10 Nordeste 0 -- -- 64
2021-01-03 18:00:00 17.9 7 Nordeste 16 Nordeste 0 -- -- 62
2021-01-03 17:00:00 18.3 9 Nordeste 17 Nordeste 0 -- -- 61
2021-01-03 16:00:00 18.6 10 Nordeste 20 Nordeste 0 -- -- 60
2021-01-03 15:00:00 19.2 10 Nordeste 19 Nordeste 0 -- -- 58
2021-01-03 14:00:00 18.4 10 Nordeste 17 Este 0 -- -- 65
2021-01-03 13:00:00 18.9 10 Este 18 Nordeste 0 -- -- 61
2021-01-03 12:00:00 19 10 Nordeste 15 Este 0 -- -- 60
2021-01-03 11:00:00 18.5 6 Este 12 Este 0 -- -- 62
2021-01-03 10:00:00 18.2 4 Norte 9 Noroeste 0 -- -- 63
2021-01-03 09:00:00 16.2 5 Noroeste 9 Noroeste 0 -- -- 68
2021-01-03 08:00:00 15.5 6 Noroeste 11 Noroeste 0 -- -- 68
2021-01-03 07:00:00 14.7 8 Noroeste 9 Noroeste 0 -- -- 75
2021-01-03 06:00:00 15.4 5 Noroeste 10 Norte 0 -- -- 73
2021-01-03 05:00:00 16.6 5 Norte 10 Norte 0 -- -- 69
2021-01-03 04:00:00 17.1 11 Norte 21 Norte 0 -- -- 66
2021-01-03 03:00:00 17.1 8 Norte 18 Norte 0 -- -- 66
2021-01-03 02:00:00 17.3 10 Norte 17 Norte 0 -- -- 67
2021-01-03 01:00:00 17.4 11 Norte 19 Norte 0 -- -- 65
2021-01-03 00:00:00 17.1 12 Norte 16 Nordeste 0 -- -- 68
2021-01-02 23:00:00 17.2 10 Norte 23 Norte 0 -- -- 68
2021-01-02 22:00:00 17 12 Norte 19 Norte 0 -- -- 61
2021-01-02 21:00:00 17 9 Norte 19 Norte 0 -- -- 62
2021-01-02 20:00:00 17.4 10 Nordeste 19 Norte 0 -- -- 64
2021-01-02 19:00:00 17.1 12 Nordeste 25 Norte 0 -- -- 69
2021-01-02 18:00:00 17.6 17 Nordeste 30 Nordeste 0 -- -- 69
2021-01-02 17:00:00 18.7 17 Nordeste 31 Nordeste 0 -- -- 59
2021-01-02 16:00:00 19.3 18 Nordeste 33 Nordeste 0 -- -- 50
2021-01-02 15:00:00 19.6 17 Nordeste 32 Este 0 -- -- 53
2021-01-02 14:00:00 19.4 18 Nordeste 35 Nordeste 0 -- -- 55
2021-01-02 13:00:00 20.9 16 Norte 32 Nordeste 0 -- -- 49